Terminal Aerodrome Forecast
Issued by NWS Pueblo, CO

Home | Current Version | Previous Version | Text Only | Print | Product List | Glossary On
Versions: 1 2 3 4 5 6 7 8 9 10 11 12 13 14 15 16 17 18 19 20 21 22 23 24 25 26 27 28 29 30 31 32 33 34 35 36 37 38 39 40 41 42 43 44 45 46 47 48 49 50
000
FTUS45 KPUB 010554 CCA
TAFCOS
TAF COR
KCOS 010554Z 0106/0206 34012G22KT P6SM SCT022 OVC035
      TEMPO 0106/0109 4SM -SN BR BKN022
     FM010900 33014KT P6SM SCT022 OVC035
     FM011500 34015G25KT P6SM SCT025 OVC040
     FM012100 35012G22KT P6SM VCSH SCT025 OVC035
     FM020100 04011KT 5SM -SN BR OVC025=

USA.gov is the U.S. government's official web portal to all federal, state and local government web resources and services.